createdAt,value
2019-02-02T00:00:56.019Z,11.00
2019-02-02T00:01:55.995Z,11.00
2019-02-02T00:02:56.923Z,11.10
2019-02-02T00:03:55.958Z,10.50
2019-02-02T00:04:55.978Z,11.10
2019-02-02T00:05:56.927Z,11.50
2019-02-02T00:06:55.924Z,12.10
2019-02-02T00:08:03.254Z,11.80
2019-02-02T00:08:55.948Z,11.20
2019-02-02T00:09:55.889Z,11.70
2019-02-02T00:10:55.894Z,12.00
2019-02-02T00:11:55.870Z,13.00
2019-02-02T00:12:55.913Z,13.20
2019-02-02T00:13:55.852Z,13.20
2019-02-02T00:14:55.875Z,12.90
2019-02-02T00:15:55.851Z,13.10
2019-02-02T00:16:55.858Z,13.70
2019-02-02T00:17:55.833Z,12.50
2019-02-02T00:18:55.798Z,12.60
2019-02-02T00:19:55.935Z,12.50
2019-02-02T00:20:55.769Z,12.90
2019-02-02T00:21:55.782Z,13.80
2019-02-02T00:22:55.750Z,13.40
2019-02-02T00:23:55.750Z,13.90
2019-02-02T00:24:55.729Z,13.70
2019-02-02T00:25:55.722Z,13.30
2019-02-02T00:26:55.750Z,13.70
2019-02-02T00:27:55.694Z,14.00
2019-02-02T00:28:55.692Z,14.70
2019-02-02T00:29:55.673Z,14.30
2019-02-02T00:30:55.685Z,14.20
2019-02-02T00:31:55.647Z,13.80
2019-02-02T00:32:55.779Z,13.60
2019-02-02T00:33:55.650Z,13.60
2019-02-02T00:34:55.641Z,13.50
2019-02-02T00:35:55.620Z,13.00
2019-02-02T00:36:55.596Z,13.00
2019-02-02T00:37:55.597Z,12.40
2019-02-02T00:38:55.581Z,12.80
2019-02-02T00:39:56.452Z,13.10
2019-02-02T00:40:55.560Z,12.60
2019-02-02T00:41:55.568Z,12.50
2019-02-02T00:42:55.529Z,11.80
2019-02-02T00:43:55.536Z,12.60
2019-02-02T00:44:55.543Z,12.50
2019-02-02T00:45:55.493Z,12.30
2019-02-02T00:46:55.496Z,12.50
2019-02-02T00:47:55.486Z,12.90
2019-02-02T00:48:55.462Z,12.50
2019-02-02T00:49:55.457Z,12.10
2019-02-02T00:50:55.492Z,12.30
2019-02-02T00:51:55.459Z,12.00
2019-02-02T00:52:55.430Z,11.70
2019-02-02T00:53:55.429Z,12.10
2019-02-02T00:54:55.412Z,12.10
2019-02-02T00:55:55.428Z,13.50
2019-02-02T00:56:55.388Z,12.90
2019-02-02T00:57:55.364Z,12.70
2019-02-02T00:58:55.461Z,12.70
2019-02-02T00:59:55.350Z,12.70
2019-02-02T01:00:55.381Z,12.80
2019-02-02T01:01:55.482Z,12.20
2019-02-02T01:02:55.347Z,12.20
2019-02-02T01:03:55.302Z,12.90
2019-02-02T01:04:55.309Z,13.20
2019-02-02T01:05:55.339Z,12.10
2019-02-02T01:06:55.308Z,12.80
2019-02-02T01:07:55.308Z,13.10
2019-02-02T01:08:55.308Z,13.50
2019-02-02T01:09:55.245Z,13.60
2019-02-02T01:10:55.227Z,14.40
2019-02-02T01:11:55.255Z,14.00
2019-02-02T01:12:55.203Z,12.80
2019-02-02T01:13:55.228Z,13.80
2019-02-02T01:14:55.187Z,13.20
2019-02-02T01:15:55.167Z,13.50
2019-02-02T01:16:55.287Z,14.00
2019-02-02T01:17:55.174Z,14.10
2019-02-02T01:18:55.147Z,13.70
2019-02-02T01:19:55.192Z,14.70
2019-02-02T01:20:55.137Z,13.70
2019-02-02T01:21:55.126Z,14.60
2019-02-02T01:22:55.084Z,13.80
2019-02-02T01:23:55.092Z,14.10
2019-02-02T01:24:55.102Z,14.40
2019-02-02T01:25:55.062Z,13.50
2019-02-02T01:26:55.050Z,14.20
2019-02-02T01:28:04.902Z,14.90
2019-02-02T01:28:56.037Z,14.40
2019-02-02T01:29:55.042Z,14.60
2019-02-02T01:30:55.011Z,15.20
2019-02-02T01:31:54.995Z,15.30
2019-02-02T01:32:55.067Z,15.50
2019-02-02T01:33:54.971Z,14.90
2019-02-02T01:34:54.958Z,16.10
2019-02-02T01:35:54.988Z,14.90
2019-02-02T01:36:54.982Z,14.80
2019-02-02T01:37:54.932Z,15.20
2019-02-02T01:38:55.028Z,15.10
2019-02-02T01:39:54.906Z,15.30
2019-02-02T01:40:54.894Z,15.40
2019-02-02T01:41:54.881Z,15.60
2019-02-02T01:42:54.919Z,16.00
2019-02-02T01:43:54.877Z,16.20
2019-02-02T01:44:54.882Z,15.80
2019-02-02T01:45:54.835Z,15.50
2019-02-02T01:46:54.830Z,16.00
2019-02-02T01:47:54.857Z,15.70
2019-02-02T01:48:54.808Z,15.50
2019-02-02T01:49:54.795Z,16.90
2019-02-02T01:50:54.788Z,16.20
2019-02-02T01:51:54.891Z,15.40
2019-02-02T01:52:54.843Z,15.60
2019-02-02T01:53:54.808Z,15.00
2019-02-02T01:54:54.758Z,15.10
2019-02-02T01:55:54.737Z,15.20
2019-02-02T01:56:54.728Z,15.60
2019-02-02T01:57:54.812Z,15.40
2019-02-02T01:58:54.792Z,15.70
2019-02-02T01:59:54.701Z,15.70
2019-02-02T02:00:54.672Z,14.80
2019-02-02T02:01:54.689Z,15.80
2019-02-02T02:02:54.679Z,15.70
2019-02-02T02:03:55.466Z,16.00
2019-02-02T02:04:54.657Z,15.80
2019-02-02T02:05:54.620Z,16.20
2019-02-02T02:06:54.606Z,15.80
2019-02-02T02:07:54.612Z,16.40
2019-02-02T02:08:54.589Z,16.30
2019-02-02T02:09:54.606Z,16.20
2019-02-02T02:10:54.711Z,16.20
2019-02-02T02:11:54.567Z,17.30
2019-02-02T02:12:54.554Z,16.50
2019-02-02T02:13:54.545Z,17.10
2019-02-02T02:14:54.523Z,17.20
2019-02-02T02:15:54.550Z,16.90
2019-02-02T02:16:54.508Z,16.80
2019-02-02T02:17:54.503Z,17.60
2019-02-02T02:18:54.625Z,16.90
2019-02-02T02:19:54.467Z,17.20
2019-02-02T02:20:54.459Z,17.30
2019-02-02T02:21:54.541Z,17.70
2019-02-02T02:22:54.436Z,16.60
2019-02-02T02:23:54.418Z,17.40
2019-02-02T02:24:54.448Z,18.00
2019-02-02T02:25:54.400Z,17.90
2019-02-02T02:26:54.392Z,16.70
2019-02-02T02:27:54.404Z,17.60
2019-02-02T02:28:54.376Z,17.70
2019-02-02T02:29:54.350Z,17.60
2019-02-02T02:30:54.394Z,17.60
2019-02-02T02:31:54.383Z,16.70
2019-02-02T02:32:54.338Z,17.30
2019-02-02T02:33:54.326Z,17.40
2019-02-02T02:34:54.323Z,17.80
2019-02-02T02:35:54.360Z,17.20
2019-02-02T02:36:54.290Z,16.80
2019-02-02T02:37:54.272Z,16.70
2019-02-02T02:38:54.290Z,17.20
2019-02-02T02:39:54.305Z,17.50
2019-02-02T02:40:54.233Z,17.30
2019-02-02T02:41:54.245Z,17.90
2019-02-02T02:42:54.272Z,18.30
2019-02-02T02:43:54.247Z,18.90
2019-02-02T02:44:54.195Z,18.00
2019-02-02T02:45:54.266Z,18.20
2019-02-02T02:46:54.242Z,18.50
2019-02-02T02:47:54.184Z,18.80
2019-02-02T02:48:54.215Z,18.90
2019-02-02T02:49:54.135Z,18.10
2019-02-02T02:50:54.146Z,17.30
2019-02-02T02:51:54.106Z,18.20
2019-02-02T02:52:54.137Z,18.30
2019-02-02T02:53:54.094Z,17.80
2019-02-02T02:54:54.087Z,18.40
2019-02-02T02:55:54.079Z,18.70
2019-02-02T02:56:54.065Z,17.40
2019-02-02T02:57:54.121Z,17.40
2019-02-02T02:58:54.033Z,18.40
2019-02-02T02:59:54.075Z,18.00
2019-02-02T03:00:54.054Z,17.50
2019-02-02T03:01:54.017Z,17.40
2019-02-02T03:02:54.047Z,17.80
2019-02-02T03:03:53.979Z,18.20
2019-02-02T03:04:54.967Z,18.20
2019-02-02T03:05:54.001Z,17.70
2019-02-02T03:06:53.970Z,18.70
2019-02-02T03:07:54.019Z,18.60
2019-02-02T03:08:53.995Z,17.20
2019-02-02T03:09:53.930Z,17.80
2019-02-02T03:10:53.931Z,18.20
2019-02-02T03:11:53.923Z,17.40
2019-02-02T03:12:53.885Z,17.40
2019-02-02T03:13:53.906Z,18.10
2019-02-02T03:14:53.868Z,17.00
2019-02-02T03:15:53.898Z,17.80
2019-02-02T03:16:54.471Z,17.20
2019-02-02T03:17:53.826Z,18.40
2019-02-02T03:18:53.846Z,19.10
2019-02-02T03:19:53.854Z,17.30
2019-02-02T03:20:53.793Z,17.20
2019-02-02T03:21:53.800Z,17.70
2019-02-02T03:22:53.783Z,17.70
2019-02-02T03:23:53.762Z,18.10
2019-02-02T03:24:53.759Z,17.90
2019-02-02T03:25:53.772Z,17.60
2019-02-02T03:26:53.726Z,17.30
2019-02-02T03:27:53.715Z,17.70
2019-02-02T03:28:53.885Z,17.00
2019-02-02T03:29:53.693Z,18.30
2019-02-02T03:30:53.726Z,17.20
2019-02-02T03:31:53.742Z,17.30
2019-02-02T03:32:54.476Z,17.40
2019-02-02T03:33:53.658Z,17.60
2019-02-02T03:34:53.745Z,16.80
2019-02-02T03:35:53.667Z,18.10
2019-02-02T03:36:53.625Z,17.20
2019-02-02T03:37:53.713Z,16.60
2019-02-02T03:38:53.649Z,16.70
2019-02-02T03:39:53.633Z,17.10
2019-02-02T03:40:53.588Z,17.60
2019-02-02T03:41:53.648Z,43.40
2019-02-02T03:42:53.555Z,76.10
2019-02-02T03:43:53.598Z,34.50
2019-02-02T03:44:53.558Z,19.50
2019-02-02T03:45:54.484Z,18.70
2019-02-02T03:46:53.535Z,17.10
2019-02-02T03:47:53.547Z,17.50
2019-02-02T03:48:53.512Z,17.10
2019-02-02T03:49:53.475Z,17.10
2019-02-02T03:50:53.473Z,17.80
2019-02-02T03:51:53.481Z,16.10
2019-02-02T03:52:53.443Z,17.40
2019-02-02T03:53:53.448Z,16.80
2019-02-02T03:54:53.430Z,17.00
2019-02-02T03:55:53.454Z,17.80
2019-02-02T03:56:53.417Z,16.60
2019-02-02T03:57:53.415Z,16.90
2019-02-02T03:59:05.699Z,17.50
2019-02-02T03:59:54.375Z,17.20
2019-02-02T04:00:53.388Z,17.10
2019-02-02T04:01:53.375Z,84.90
2019-02-02T04:02:53.347Z,31.40
2019-02-02T04:03:53.332Z,23.00
2019-02-02T04:04:53.384Z,18.20
2019-02-02T04:05:53.295Z,17.40
2019-02-02T04:06:53.325Z,18.20
2019-02-02T04:07:53.284Z,17.10
2019-02-02T04:08:53.263Z,16.90
2019-02-02T04:09:53.265Z,16.80
2019-02-02T04:10:53.274Z,17.00
2019-02-02T04:11:53.235Z,17.30
2019-02-02T04:12:53.256Z,17.40
2019-02-02T04:13:53.224Z,18.30
2019-02-02T04:14:53.203Z,17.70
2019-02-02T04:15:53.253Z,18.00
2019-02-02T04:16:53.184Z,18.30
2019-02-02T04:17:53.209Z,19.20
2019-02-02T04:18:53.168Z,18.90
2019-02-02T04:19:53.142Z,18.70
2019-02-02T04:20:53.194Z,19.00
2019-02-02T04:21:53.123Z,18.90
2019-02-02T04:22:53.142Z,17.90
2019-02-02T04:23:53.103Z,18.60
2019-02-02T04:24:53.103Z,18.30
2019-02-02T04:25:53.077Z,17.90
2019-02-02T04:26:53.117Z,17.70
2019-02-02T04:27:53.061Z,18.10
2019-02-02T04:28:53.053Z,18.30
2019-02-02T04:29:53.058Z,18.50
2019-02-02T04:30:53.036Z,18.90
2019-02-02T04:31:53.017Z,18.60
2019-02-02T04:32:53.006Z,18.00
2019-02-02T04:33:53.131Z,18.60
2019-02-02T04:34:53.013Z,17.90
2019-02-02T04:35:53.001Z,19.20
2019-02-02T04:36:52.985Z,18.90
2019-02-02T04:37:52.977Z,17.80
2019-02-02T04:38:52.955Z,19.60
2019-02-02T04:39:52.934Z,19.40
2019-02-02T04:40:52.912Z,19.70
2019-02-02T04:41:52.994Z,19.40
2019-02-02T04:42:52.904Z,18.90
2019-02-02T04:43:52.916Z,19.10
2019-02-02T04:44:53.101Z,19.70
2019-02-02T04:45:52.858Z,19.90
2019-02-02T04:46:52.919Z,19.60
2019-02-02T04:47:52.926Z,20.20
2019-02-02T04:48:52.828Z,20.00
2019-02-02T04:49:52.814Z,19.60
2019-02-02T04:50:52.807Z,20.00
2019-02-02T04:51:52.790Z,19.40
2019-02-02T04:52:52.837Z,19.90
2019-02-02T04:53:52.814Z,19.70
2019-02-02T04:54:52.768Z,20.20
2019-02-02T04:55:52.771Z,20.00
2019-02-02T04:56:52.749Z,19.00
2019-02-02T04:57:52.756Z,18.80
2019-02-02T04:58:52.746Z,19.10
2019-02-02T04:59:52.716Z,19.80
2019-02-02T05:00:52.791Z,19.60
2019-02-02T05:01:52.724Z,20.60
2019-02-02T05:02:52.702Z,20.00
2019-02-02T05:03:52.687Z,19.90
2019-02-02T05:04:52.665Z,20.10
2019-02-02T05:05:52.637Z,20.00
2019-02-02T05:06:52.637Z,20.90
2019-02-02T05:07:52.627Z,20.70
2019-02-02T05:08:52.634Z,20.10
2019-02-02T05:09:52.604Z,20.90
2019-02-02T05:10:52.592Z,20.60
2019-02-02T05:11:52.617Z,19.70
2019-02-02T05:12:52.564Z,20.50
2019-02-02T05:13:52.563Z,21.20
2019-02-02T05:14:52.598Z,20.30
2019-02-02T05:15:52.564Z,19.90
2019-02-02T05:16:52.555Z,20.40
2019-02-02T05:17:52.510Z,20.80
2019-02-02T05:18:52.511Z,20.40
2019-02-02T05:19:52.490Z,20.40
2019-02-02T05:20:52.481Z,19.80
2019-02-02T05:21:52.503Z,20.20
2019-02-02T05:22:52.458Z,20.50
2019-02-02T05:23:52.504Z,20.50
2019-02-02T05:24:52.447Z,20.20
2019-02-02T05:25:52.441Z,20.00
2019-02-02T05:26:52.518Z,19.90
2019-02-02T05:27:52.397Z,20.50
2019-02-02T05:28:52.405Z,19.70
2019-02-02T05:29:52.990Z,20.10
2019-02-02T05:30:52.367Z,20.60
2019-02-02T05:31:52.367Z,21.20
2019-02-02T05:32:52.393Z,42.70
2019-02-02T05:33:53.805Z,164.70
2019-02-02T05:34:52.329Z,36.80
2019-02-02T05:35:52.350Z,29.50
2019-02-02T05:36:52.306Z,23.60
2019-02-02T05:37:52.339Z,22.00
2019-02-02T05:38:52.281Z,20.50
2019-02-02T05:39:52.268Z,20.50
2019-02-02T05:40:52.369Z,21.20
2019-02-02T05:41:52.247Z,19.90
2019-02-02T05:42:52.231Z,21.00
2019-02-02T05:43:52.223Z,21.40
2019-02-02T05:44:52.215Z,21.00
2019-02-02T05:45:52.229Z,20.50
2019-02-02T05:46:52.239Z,19.90
2019-02-02T05:47:52.256Z,20.60
2019-02-02T05:48:52.165Z,20.20
2019-02-02T05:49:52.160Z,20.30
2019-02-02T05:50:52.345Z,20.00
2019-02-02T05:51:52.989Z,21.00
2019-02-02T05:52:52.196Z,21.80
2019-02-02T05:53:52.140Z,20.90
2019-02-02T05:54:52.104Z,19.90
2019-02-02T05:55:52.091Z,19.30
2019-02-02T05:56:52.083Z,18.70
2019-02-02T05:57:52.128Z,20.10
2019-02-02T05:58:52.058Z,19.30
2019-02-02T05:59:53.055Z,18.40
2019-02-02T06:00:52.038Z,18.90
2019-02-02T06:01:52.035Z,18.80
2019-02-02T06:02:52.149Z,18.80
2019-02-02T06:03:52.067Z,18.40
2019-02-02T06:04:51.994Z,18.60
2019-02-02T06:05:52.022Z,26.10
2019-02-02T06:06:51.966Z,119.00
2019-02-02T06:07:51.971Z,28.80
2019-02-02T06:08:59.124Z,23.30
2019-02-02T06:09:52.066Z,25.80
2019-02-02T06:10:51.926Z,20.70
2019-02-02T06:11:52.516Z,19.90
2019-02-02T06:12:52.019Z,19.20
2019-02-02T06:13:51.945Z,19.30
2019-02-02T06:14:51.964Z,19.70
2019-02-02T06:15:51.874Z,20.50
2019-02-02T06:16:51.870Z,19.60
2019-02-02T06:17:51.972Z,19.90
2019-02-02T06:18:51.847Z,18.90
2019-02-02T06:19:51.866Z,20.20
2019-02-02T06:20:51.893Z,19.90
2019-02-02T06:21:51.807Z,19.80
2019-02-02T06:22:51.802Z,20.80
2019-02-02T06:23:51.816Z,20.20
2019-02-02T06:24:52.762Z,21.10
2019-02-02T06:25:51.823Z,20.90
2019-02-02T06:26:51.780Z,20.20
2019-02-02T06:27:51.739Z,20.40
2019-02-02T06:28:51.734Z,20.10
2019-02-02T06:29:51.753Z,20.70
2019-02-02T06:30:51.862Z,21.10
2019-02-02T06:31:51.694Z,22.40
2019-02-02T06:32:51.687Z,23.10
2019-02-02T06:33:51.848Z,21.30
2019-02-02T06:34:51.678Z,22.10
2019-02-02T06:35:51.775Z,23.10
2019-02-02T06:36:51.710Z,22.00
2019-02-02T06:37:51.717Z,21.80
2019-02-02T06:38:51.627Z,23.00
2019-02-02T06:39:51.678Z,23.40
2019-02-02T06:40:51.650Z,22.70
2019-02-02T06:41:51.587Z,24.30
2019-02-02T06:42:51.688Z,23.00
2019-02-02T06:43:51.562Z,24.40
2019-02-02T06:44:51.554Z,23.40
2019-02-02T06:45:51.610Z,23.70
2019-02-02T06:46:51.599Z,23.40
2019-02-02T06:47:51.597Z,23.60
2019-02-02T06:48:51.522Z,23.90
2019-02-02T06:49:51.501Z,24.70
2019-02-02T06:50:51.509Z,23.60
2019-02-02T06:51:51.490Z,24.80
2019-02-02T06:52:51.675Z,24.10
2019-02-02T06:53:51.481Z,24.80
2019-02-02T06:54:51.443Z,24.60
2019-02-02T06:55:51.573Z,60.60
2019-02-02T06:56:51.434Z,66.20
2019-02-02T06:57:51.425Z,33.60
2019-02-02T06:58:51.403Z,46.00
2019-02-02T06:59:51.429Z,36.70
2019-02-02T07:00:51.502Z,28.20
2019-02-02T07:01:51.422Z,27.10
2019-02-02T07:02:51.358Z,25.80
2019-02-02T07:03:51.477Z,26.50
2019-02-02T07:04:51.357Z,25.70
2019-02-02T07:05:51.378Z,26.20
2019-02-02T07:06:51.364Z,26.60
2019-02-02T07:07:51.396Z,27.90
2019-02-02T07:08:51.407Z,26.90
2019-02-02T07:09:51.319Z,26.50
2019-02-02T07:10:51.325Z,26.10
2019-02-02T07:11:51.337Z,27.30
2019-02-02T07:12:51.249Z,27.40
2019-02-02T07:13:51.400Z,28.40
2019-02-02T07:14:51.228Z,27.30
2019-02-02T07:15:51.276Z,28.90
2019-02-02T07:16:51.256Z,29.10
2019-02-02T07:17:51.199Z,29.00
2019-02-02T07:18:51.192Z,28.00
2019-02-02T07:19:51.295Z,29.60
2019-02-02T07:20:51.245Z,30.50
2019-02-02T07:21:51.156Z,30.20
2019-02-02T07:22:51.180Z,30.10
2019-02-02T07:23:51.161Z,29.10
2019-02-02T07:24:51.125Z,34.70
2019-02-02T07:25:51.108Z,37.90
2019-02-02T07:26:51.184Z,32.50
2019-02-02T07:27:51.100Z,32.40
2019-02-02T07:28:51.099Z,32.10
2019-02-02T07:29:51.060Z,31.20
2019-02-02T07:30:51.111Z,29.90
2019-02-02T07:31:51.044Z,29.90
2019-02-02T07:32:51.071Z,29.90
2019-02-02T07:33:51.086Z,29.80
2019-02-02T07:34:51.032Z,29.50
2019-02-02T07:35:53.890Z,30.50
2019-02-02T07:36:51.022Z,29.50
2019-02-02T07:37:50.981Z,27.90
2019-02-02T07:38:51.023Z,30.10
2019-02-02T07:39:50.959Z,29.00
2019-02-02T07:40:50.953Z,29.30
2019-02-02T07:41:50.965Z,27.00
2019-02-02T07:42:50.978Z,28.40
2019-02-02T07:43:50.924Z,28.60
2019-02-02T07:44:50.891Z,29.70
2019-02-02T07:45:50.917Z,29.40
2019-02-02T07:46:51.017Z,29.10
2019-02-02T07:47:50.892Z,30.80
2019-02-02T07:48:50.923Z,29.80
2019-02-02T07:49:50.891Z,30.80
2019-02-02T07:50:50.829Z,29.60
2019-02-02T07:51:50.844Z,32.30
2019-02-02T07:52:50.997Z,29.80
2019-02-02T07:53:50.819Z,30.80
2019-02-02T07:54:50.781Z,30.20
2019-02-02T07:55:50.784Z,31.60
2019-02-02T07:56:50.761Z,31.60
2019-02-02T07:57:50.840Z,30.90
2019-02-02T07:58:50.862Z,30.70
2019-02-02T07:59:50.740Z,30.00
2019-02-02T08:00:50.795Z,31.70
2019-02-02T08:01:50.787Z,31.30
2019-02-02T08:02:50.815Z,31.60
2019-02-02T08:03:50.694Z,32.20
2019-02-02T08:04:50.683Z,44.30
2019-02-02T08:05:50.697Z,115.50
2019-02-02T08:06:50.700Z,37.50
2019-02-02T08:07:51.609Z,36.00
2019-02-02T08:08:50.666Z,33.70
2019-02-02T08:09:50.703Z,33.80
2019-02-02T08:10:50.614Z,32.70
2019-02-02T08:11:50.621Z,31.80
2019-02-02T08:12:50.625Z,33.10
2019-02-02T08:13:50.582Z,31.80
2019-02-02T08:14:50.583Z,33.10
2019-02-02T08:15:50.560Z,33.30
2019-02-02T08:16:52.608Z,33.80
2019-02-02T08:17:50.638Z,33.80
2019-02-02T08:18:50.593Z,32.70
2019-02-02T08:20:51.531Z,32.00
2019-02-02T08:21:50.487Z,34.90
2019-02-02T08:22:50.478Z,33.90
2019-02-02T08:23:50.511Z,35.00
2019-02-02T08:24:50.459Z,33.70
2019-02-02T08:25:50.510Z,33.80
2019-02-02T08:26:50.432Z,33.20
2019-02-02T08:27:50.427Z,33.40
2019-02-02T08:28:50.410Z,33.20
2019-02-02T08:29:50.529Z,32.80
2019-02-02T08:30:52.401Z,33.80
2019-02-02T08:31:50.384Z,36.20
2019-02-02T08:32:50.423Z,34.20
2019-02-02T08:33:50.353Z,33.70
2019-02-02T08:34:50.378Z,32.60
2019-02-02T08:35:50.373Z,34.80
2019-02-02T08:36:50.319Z,34.30
2019-02-02T08:37:50.311Z,34.00
2019-02-02T08:38:50.300Z,37.30
2019-02-02T08:39:50.289Z,34.90
2019-02-02T08:40:50.331Z,35.20
2019-02-02T08:41:50.895Z,36.40
2019-02-02T08:42:50.257Z,35.70
2019-02-02T08:43:50.248Z,35.90
2019-02-02T08:44:50.243Z,36.90
2019-02-02T08:45:51.030Z,36.00
2019-02-02T08:46:50.220Z,37.10
2019-02-02T08:47:50.201Z,37.60
2019-02-02T08:48:50.297Z,38.20
2019-02-02T08:49:50.171Z,36.40
2019-02-02T08:50:50.172Z,36.30
2019-02-02T08:51:50.201Z,38.00
2019-02-02T08:52:50.323Z,36.60
2019-02-02T08:53:50.145Z,37.90
2019-02-02T08:54:50.214Z,42.90
2019-02-02T08:55:51.943Z,49.40
2019-02-02T08:56:50.255Z,64.50
2019-02-02T08:57:50.101Z,38.80
2019-02-02T08:58:50.112Z,40.80
2019-02-02T08:59:50.077Z,40.30
2019-02-02T09:00:50.077Z,39.40
2019-02-02T09:01:50.079Z,39.00
2019-02-02T09:02:51.033Z,39.30
2019-02-02T09:03:50.078Z,39.00
2019-02-02T09:04:50.061Z,38.40
2019-02-02T09:05:51.055Z,38.60
2019-02-02T09:06:50.007Z,39.10
2019-02-02T09:07:50.139Z,40.00
2019-02-02T09:08:49.973Z,37.70
2019-02-02T09:09:49.972Z,37.70
2019-02-02T09:10:50.038Z,37.60
2019-02-02T09:11:49.996Z,37.80
2019-02-02T09:12:50.002Z,35.50
2019-02-02T09:13:49.963Z,35.40
2019-02-02T09:14:49.914Z,37.50
2019-02-02T09:15:50.137Z,37.50
2019-02-02T09:16:49.885Z,36.10
2019-02-02T09:17:49.923Z,35.80
2019-02-02T09:18:51.230Z,37.80
2019-02-02T09:19:49.896Z,35.70
2019-02-02T09:20:49.907Z,35.30
2019-02-02T09:21:49.837Z,35.00
2019-02-02T09:22:49.841Z,91.80
2019-02-02T09:23:49.864Z,41.40
2019-02-02T09:24:51.785Z,41.30
2019-02-02T09:25:49.864Z,50.90
2019-02-02T09:26:49.846Z,39.40
2019-02-02T09:27:49.861Z,38.10
2019-02-02T09:28:49.759Z,36.90
2019-02-02T09:29:49.804Z,35.90
2019-02-02T09:30:49.723Z,36.80
2019-02-02T09:31:49.747Z,36.70
2019-02-02T09:32:49.719Z,37.40
2019-02-02T09:33:49.743Z,40.30
2019-02-02T09:34:49.829Z,40.00
2019-02-02T09:35:49.669Z,39.70
2019-02-02T09:36:49.685Z,40.10
2019-02-02T09:37:49.710Z,40.30
2019-02-02T09:38:49.693Z,41.90
2019-02-02T09:39:49.633Z,40.50
2019-02-02T09:40:49.634Z,40.70
2019-02-02T09:41:49.613Z,39.20
2019-02-02T09:42:49.776Z,39.70
2019-02-02T09:43:49.617Z,39.60
2019-02-02T09:44:49.615Z,37.80
2019-02-02T09:45:49.636Z,37.10
2019-02-02T09:46:50.550Z,37.00
2019-02-02T09:47:49.555Z,36.30
2019-02-02T09:48:49.534Z,36.50
2019-02-02T09:49:49.536Z,37.30
2019-02-02T09:50:49.510Z,39.20
2019-02-02T09:51:49.566Z,36.20
2019-02-02T09:52:50.376Z,36.50
2019-02-02T09:53:49.536Z,36.30
2019-02-02T09:54:49.465Z,35.20
2019-02-02T09:55:49.493Z,35.30
2019-02-02T09:56:49.446Z,36.10
2019-02-02T09:57:49.467Z,35.70
2019-02-02T09:58:49.421Z,37.40
2019-02-02T09:59:49.421Z,38.10
2019-02-02T10:00:49.399Z,37.60
2019-02-02T10:01:49.390Z,38.10
2019-02-02T10:02:49.389Z,39.00
2019-02-02T10:03:49.396Z,38.60
2019-02-02T10:04:49.375Z,37.00
2019-02-02T10:05:49.346Z,38.10
2019-02-02T10:06:49.341Z,36.90
2019-02-02T10:07:49.326Z,36.40
2019-02-02T10:08:49.311Z,37.20
2019-02-02T10:09:49.321Z,37.00
2019-02-02T10:10:49.294Z,42.90
2019-02-02T10:11:49.277Z,111.90
2019-02-02T10:12:49.259Z,89.90
2019-02-02T10:13:51.939Z,104.70
2019-02-02T10:14:49.248Z,114.00
2019-02-02T10:15:49.349Z,105.30
2019-02-02T10:16:49.222Z,148.40
2019-02-02T10:17:49.907Z,92.70
2019-02-02T10:18:49.339Z,48.90
2019-02-02T10:19:49.190Z,36.20
2019-02-02T10:20:49.218Z,36.00
2019-02-02T10:21:49.798Z,36.90
2019-02-02T10:22:49.163Z,36.40
2019-02-02T10:23:49.145Z,36.10
2019-02-02T10:24:49.138Z,35.30
2019-02-02T10:25:49.138Z,36.70
2019-02-02T10:26:49.155Z,35.90
2019-02-02T10:27:49.098Z,35.90
2019-02-02T10:28:49.096Z,35.70
2019-02-02T10:29:49.089Z,43.70
2019-02-02T10:30:49.093Z,42.70
2019-02-02T10:31:49.070Z,91.60
2019-02-02T10:32:49.058Z,46.60
2019-02-02T10:33:49.042Z,41.50
2019-02-02T10:34:49.128Z,38.80
2019-02-02T10:35:49.013Z,37.00
2019-02-02T10:36:49.039Z,38.30
2019-02-02T10:37:49.110Z,39.00
2019-02-02T10:38:49.001Z,37.60
2019-02-02T10:39:48.978Z,37.70
2019-02-02T10:40:48.995Z,37.90
2019-02-02T10:41:48.977Z,37.20
2019-02-02T10:42:48.971Z,36.80
2019-02-02T10:43:48.925Z,35.90
2019-02-02T10:44:48.913Z,38.70
2019-02-02T10:45:48.912Z,36.40
2019-02-02T10:46:48.894Z,38.60
2019-02-02T10:47:48.874Z,37.70
2019-02-02T10:48:48.914Z,38.20
2019-02-02T10:49:48.870Z,36.80
2019-02-02T10:50:48.861Z,38.60
2019-02-02T10:51:48.837Z,39.00
2019-02-02T10:52:48.824Z,38.00
2019-02-02T10:53:48.814Z,37.60
2019-02-02T10:54:49.138Z,38.20
2019-02-02T10:55:48.801Z,38.10
2019-02-02T10:56:48.781Z,37.90
2019-02-02T10:57:48.916Z,37.80
2019-02-02T10:58:48.803Z,38.40
2019-02-02T10:59:49.139Z,37.40
2019-02-02T11:00:48.736Z,38.70
2019-02-02T11:01:51.289Z,37.60
2019-02-02T11:02:48.722Z,40.40
2019-02-02T11:03:48.738Z,39.90
2019-02-02T11:04:48.795Z,39.50
2019-02-02T11:05:48.788Z,39.30
2019-02-02T11:06:48.749Z,39.80
2019-02-02T11:07:48.729Z,40.20
2019-02-02T11:08:48.701Z,76.20
2019-02-02T11:09:48.734Z,76.00
2019-02-02T11:10:48.725Z,78.50
2019-02-02T11:11:48.668Z,76.20
2019-02-02T11:12:48.654Z,64.20
2019-02-02T11:13:48.713Z,64.60
2019-02-02T11:14:48.625Z,51.00
2019-02-02T11:15:48.605Z,40.00
2019-02-02T11:16:48.808Z,38.70
2019-02-02T11:17:48.663Z,37.90
2019-02-02T11:18:48.592Z,53.50
2019-02-02T11:19:48.589Z,73.50
2019-02-02T11:20:48.600Z,57.70
2019-02-02T11:21:48.508Z,40.40
2019-02-02T11:22:48.506Z,41.10
2019-02-02T11:23:48.903Z,37.70
2019-02-02T11:24:48.535Z,38.70
2019-02-02T11:25:48.552Z,37.50
2019-02-02T11:26:48.557Z,40.10
2019-02-02T11:27:48.443Z,38.40
2019-02-02T11:28:48.517Z,36.80
2019-02-02T11:29:48.665Z,38.30
2019-02-02T11:30:48.680Z,36.80
2019-02-02T11:31:48.602Z,38.30
2019-02-02T11:32:48.395Z,37.70
2019-02-02T11:33:48.374Z,39.00
2019-02-02T11:34:48.372Z,37.50
2019-02-02T11:35:48.428Z,37.80
2019-02-02T11:36:48.348Z,36.90
2019-02-02T11:37:48.389Z,36.60
2019-02-02T11:38:48.324Z,37.40
2019-02-02T11:39:48.313Z,37.40
2019-02-02T11:40:48.296Z,36.90
2019-02-02T11:41:48.405Z,38.20
2019-02-02T11:42:48.298Z,38.70
2019-02-02T11:43:48.282Z,38.60
2019-02-02T11:44:48.411Z,37.90
2019-02-02T11:45:48.253Z,38.30
2019-02-02T11:46:48.234Z,39.50
2019-02-02T11:47:48.262Z,39.30
2019-02-02T11:48:48.213Z,172.50
2019-02-02T11:49:48.220Z,143.70
2019-02-02T11:50:48.181Z,104.40
2019-02-02T11:51:48.181Z,87.60
2019-02-02T11:52:48.197Z,62.90
2019-02-02T11:53:48.175Z,48.50
2019-02-02T11:54:48.136Z,53.80
2019-02-02T11:55:48.128Z,42.10
2019-02-02T11:56:48.135Z,38.40
2019-02-02T11:57:50.048Z,37.10
2019-02-02T11:58:48.104Z,37.20
2019-02-02T11:59:48.124Z,35.70
2019-02-02T12:00:49.186Z,37.90
2019-02-02T12:01:48.082Z,37.20
2019-02-02T12:02:49.453Z,36.70
2019-02-02T12:03:48.104Z,45.60
2019-02-02T12:04:48.048Z,38.90
2019-02-02T12:05:48.066Z,37.90
2019-02-02T12:06:49.151Z,36.40
2019-02-02T12:07:48.005Z,38.10
2019-02-02T12:08:49.338Z,36.40
2019-02-02T12:09:55.048Z,36.30
2019-02-02T12:10:47.976Z,38.00
2019-02-02T12:11:48.025Z,37.20
2019-02-02T12:12:47.950Z,36.10
2019-02-02T12:13:47.932Z,35.70
2019-02-02T12:14:48.005Z,37.40
2019-02-02T12:15:47.907Z,37.10
2019-02-02T12:16:47.922Z,36.70
2019-02-02T12:17:47.938Z,35.50
2019-02-02T12:18:47.898Z,37.90
2019-02-02T12:19:47.870Z,37.60
2019-02-02T12:20:47.900Z,35.80
2019-02-02T12:21:47.851Z,39.10
2019-02-02T12:22:47.883Z,38.30
2019-02-02T12:23:47.826Z,36.90
2019-02-02T12:24:47.892Z,36.20
2019-02-02T12:25:47.797Z,37.00
2019-02-02T12:26:47.790Z,35.60
2019-02-02T12:27:47.987Z,35.60
2019-02-02T12:28:47.772Z,37.20
2019-02-02T12:29:47.757Z,37.30
2019-02-02T12:30:47.760Z,37.30
2019-02-02T12:31:47.734Z,37.40
2019-02-02T12:32:47.727Z,37.70
2019-02-02T12:33:47.746Z,37.20
2019-02-02T12:34:47.712Z,37.80
2019-02-02T12:35:47.697Z,38.50
2019-02-02T12:36:47.686Z,38.80
2019-02-02T12:37:47.669Z,42.70
2019-02-02T12:38:47.692Z,69.20
2019-02-02T12:39:47.666Z,65.30
2019-02-02T12:40:47.642Z,51.60
2019-02-02T12:41:47.629Z,41.20
2019-02-02T12:42:47.617Z,42.00
2019-02-02T12:43:48.598Z,38.90
2019-02-02T12:44:47.594Z,38.50
2019-02-02T12:45:47.585Z,37.80
2019-02-02T12:46:47.659Z,38.60
2019-02-02T12:47:47.562Z,38.10
2019-02-02T12:48:47.543Z,36.50
2019-02-02T12:49:47.596Z,36.90
2019-02-02T12:50:47.550Z,37.50
2019-02-02T12:51:47.552Z,37.20
2019-02-02T12:52:47.520Z,36.60
2019-02-02T12:53:47.525Z,37.30